sensor_id;sensor_type;location;lat;lon;timestamp;P1;durP1;ratioP1;P2;durP2;ratioP2
41139;SDS011;26881;48.784;9.192;2022-12-29T00:03:08;4.90;;;3.10;;
41139;SDS011;26881;48.784;9.192;2022-12-29T00:08:30;4.78;;;3.50;;
41139;SDS011;26881;48.784;9.192;2022-12-29T00:14:01;3.88;;;1.98;;
41139;SDS011;26881;48.784;9.192;2022-12-29T00:19:46;2.72;;;2.10;;
41139;SDS011;26881;48.784;9.192;2022-12-29T00:25:27;2.65;;;1.85;;
41139;SDS011;26881;48.784;9.192;2022-12-29T00:31:09;3.80;;;1.92;;
41139;SDS011;26881;48.784;9.192;2022-12-29T00:36:52;5.85;;;2.20;;
41139;SDS011;26881;48.784;9.192;2022-12-29T00:42:14;3.15;;;2.17;;
41139;SDS011;26881;48.784;9.192;2022-12-29T00:47:54;5.43;;;1.85;;
41139;SDS011;26881;48.784;9.192;2022-12-29T00:53:16;4.88;;;1.90;;
41139;SDS011;26881;48.784;9.192;2022-12-29T00:58:38;4.25;;;1.55;;
41139;SDS011;26881;48.784;9.192;2022-12-29T01:03:59;3.35;;;2.15;;
41139;SDS011;26881;48.784;9.192;2022-12-29T01:09:25;4.55;;;1.60;;
41139;SDS011;26881;48.784;9.192;2022-12-29T01:15:06;6.03;;;2.00;;
41139;SDS011;26881;48.784;9.192;2022-12-29T01:20:29;2.75;;;1.80;;
41139;SDS011;26881;48.784;9.192;2022-12-29T01:25:51;3.10;;;1.60;;
41139;SDS011;26881;48.784;9.192;2022-12-29T01:31:13;3.28;;;1.58;;
41139;SDS011;26881;48.784;9.192;2022-12-29T01:36:36;2.70;;;1.50;;
41139;SDS011;26881;48.784;9.192;2022-12-29T01:41:58;6.18;;;1.80;;
41139;SDS011;26881;48.784;9.192;2022-12-29T01:53:08;1.90;;;1.35;;
41139;SDS011;26881;48.784;9.192;2022-12-29T01:58:39;5.25;;;1.30;;
41139;SDS011;26881;48.784;9.192;2022-12-29T02:04:04;2.47;;;1.38;;
41139;SDS011;26881;48.784;9.192;2022-12-29T02:09:26;3.88;;;1.85;;
41139;SDS011;26881;48.784;9.192;2022-12-29T02:14:48;5.32;;;1.60;;
41139;SDS011;26881;48.784;9.192;2022-12-29T02:26:16;3.65;;;1.20;;
41139;SDS011;26881;48.784;9.192;2022-12-29T02:32:08;1.98;;;1.15;;
41139;SDS011;26881;48.784;9.192;2022-12-29T02:48:43;1.97;;;1.00;;
41139;SDS011;26881;48.784;9.192;2022-12-29T02:54:12;6.97;;;1.40;;
41139;SDS011;26881;48.784;9.192;2022-12-29T02:59:53;2.60;;;1.30;;
41139;SDS011;26881;48.784;9.192;2022-12-29T03:11:13;2.28;;;1.23;;
41139;SDS011;26881;48.784;9.192;2022-12-29T03:16:55;4.30;;;1.40;;
41139;SDS011;26881;48.784;9.192;2022-12-29T03:22:26;3.83;;;1.30;;
41139;SDS011;26881;48.784;9.192;2022-12-29T03:27:53;5.13;;;1.20;;
41139;SDS011;26881;48.784;9.192;2022-12-29T03:33:21;2.28;;;1.30;;
41139;SDS011;26881;48.784;9.192;2022-12-29T03:38:48;6.25;;;1.75;;
41139;SDS011;26881;48.784;9.192;2022-12-29T03:44:14;2.10;;;1.30;;
41139;SDS011;26881;48.784;9.192;2022-12-29T03:49:37;1.80;;;1.00;;
41139;SDS011;26881;48.784;9.192;2022-12-29T03:54:59;3.42;;;1.33;;
41139;SDS011;26881;48.784;9.192;2022-12-29T04:00:21;3.08;;;1.10;;
41139;SDS011;26881;48.784;9.192;2022-12-29T04:05:43;2.05;;;1.30;;
41139;SDS011;26881;48.784;9.192;2022-12-29T04:11:04;5.53;;;1.35;;
41139;SDS011;26881;48.784;9.192;2022-12-29T04:16:26;2.03;;;1.00;;
41139;SDS011;26881;48.784;9.192;2022-12-29T04:21:48;1.10;;;1.00;;
41139;SDS011;26881;48.784;9.192;2022-12-29T04:27:10;3.47;;;1.25;;
41139;SDS011;26881;48.784;9.192;2022-12-29T04:32:31;3.70;;;1.10;;
41139;SDS011;26881;48.784;9.192;2022-12-29T04:37:53;1.70;;;1.33;;
41139;SDS011;26881;48.784;9.192;2022-12-29T04:43:15;2.50;;;1.25;;
41139;SDS011;26881;48.784;9.192;2022-12-29T04:48:38;3.15;;;1.33;;
41139;SDS011;26881;48.784;9.192;2022-12-29T04:54:00;2.15;;;1.40;;
41139;SDS011;26881;48.784;9.192;2022-12-29T04:59:22;3.38;;;1.63;;
41139;SDS011;26881;48.784;9.192;2022-12-29T05:04:44;3.47;;;1.45;;
41139;SDS011;26881;48.784;9.192;2022-12-29T05:10:06;3.88;;;1.15;;
41139;SDS011;26881;48.784;9.192;2022-12-29T05:15:28;0.90;;;0.90;;
41139;SDS011;26881;48.784;9.192;2022-12-29T05:20:50;4.00;;;1.23;;
41139;SDS011;26881;48.784;9.192;2022-12-29T05:26:12;1.42;;;1.10;;
41139;SDS011;26881;48.784;9.192;2022-12-29T05:31:33;3.20;;;1.52;;
41139;SDS011;26881;48.784;9.192;2022-12-29T05:36:57;2.05;;;1.30;;
41139;SDS011;26881;48.784;9.192;2022-12-29T05:42:18;2.15;;;1.20;;
41139;SDS011;26881;48.784;9.192;2022-12-29T05:47:40;4.47;;;1.50;;
41139;SDS011;26881;48.784;9.192;2022-12-29T05:53:02;2.45;;;1.20;;
41139;SDS011;26881;48.784;9.192;2022-12-29T05:58:24;2.35;;;1.10;;
41139;SDS011;26881;48.784;9.192;2022-12-29T06:03:46;1.48;;;1.38;;
41139;SDS011;26881;48.784;9.192;2022-12-29T06:09:09;2.30;;;1.60;;
41139;SDS011;26881;48.784;9.192;2022-12-29T06:14:32;2.83;;;1.20;;
41139;SDS011;26881;48.784;9.192;2022-12-29T06:19:54;1.48;;;1.20;;
41139;SDS011;26881;48.784;9.192;2022-12-29T06:25:16;4.00;;;1.30;;
41139;SDS011;26881;48.784;9.192;2022-12-29T06:30:38;3.70;;;1.35;;
41139;SDS011;26881;48.784;9.192;2022-12-29T06:35:59;2.30;;;1.30;;
41139;SDS011;26881;48.784;9.192;2022-12-29T06:41:21;3.30;;;1.23;;
41139;SDS011;26881;48.784;9.192;2022-12-29T06:46:52;3.08;;;1.02;;
41139;SDS011;26881;48.784;9.192;2022-12-29T06:52:14;2.78;;;1.30;;
41139;SDS011;26881;48.784;9.192;2022-12-29T06:57:35;3.85;;;1.38;;
41139;SDS011;26881;48.784;9.192;2022-12-29T07:02:57;1.95;;;1.00;;
41139;SDS011;26881;48.784;9.192;2022-12-29T07:08:22;2.13;;;1.08;;
41139;SDS011;26881;48.784;9.192;2022-12-29T07:13:43;3.50;;;1.23;;
41139;SDS011;26881;48.784;9.192;2022-12-29T07:19:05;2.15;;;1.20;;
41139;SDS011;26881;48.784;9.192;2022-12-29T07:24:27;2.30;;;1.13;;
41139;SDS011;26881;48.784;9.192;2022-12-29T07:29:49;1.45;;;1.27;;
41139;SDS011;26881;48.784;9.192;2022-12-29T07:35:11;4.22;;;1.60;;
41139;SDS011;26881;48.784;9.192;2022-12-29T07:40:32;2.33;;;1.27;;
41139;SDS011;26881;48.784;9.192;2022-12-29T07:45:54;3.17;;;1.40;;
41139;SDS011;26881;48.784;9.192;2022-12-29T07:51:16;2.42;;;1.55;;
41139;SDS011;26881;48.784;9.192;2022-12-29T07:56:38;3.40;;;1.60;;
41139;SDS011;26881;48.784;9.192;2022-12-29T08:02:00;4.22;;;1.50;;
41139;SDS011;26881;48.784;9.192;2022-12-29T08:07:22;4.25;;;1.40;;
41139;SDS011;26881;48.784;9.192;2022-12-29T08:12:44;4.28;;;2.28;;
41139;SDS011;26881;48.784;9.192;2022-12-29T08:18:05;1.58;;;1.33;;
41139;SDS011;26881;48.784;9.192;2022-12-29T08:23:27;3.95;;;1.40;;
41139;SDS011;26881;48.784;9.192;2022-12-29T08:28:49;3.30;;;1.38;;
41139;SDS011;26881;48.784;9.192;2022-12-29T08:34:13;3.88;;;1.60;;
41139;SDS011;26881;48.784;9.192;2022-12-29T08:39:35;4.47;;;1.80;;
41139;SDS011;26881;48.784;9.192;2022-12-29T08:44:57;5.47;;;1.70;;
41139;SDS011;26881;48.784;9.192;2022-12-29T08:50:20;4.43;;;1.95;;
41139;SDS011;26881;48.784;9.192;2022-12-29T08:55:42;8.82;;;1.70;;
41139;SDS011;26881;48.784;9.192;2022-12-29T09:01:03;3.47;;;1.80;;
41139;SDS011;26881;48.784;9.192;2022-12-29T09:06:25;1.95;;;1.35;;
41139;SDS011;26881;48.784;9.192;2022-12-29T09:11:47;2.90;;;1.77;;
41139;SDS011;26881;48.784;9.192;2022-12-29T09:17:09;4.25;;;1.50;;
41139;SDS011;26881;48.784;9.192;2022-12-29T09:22:50;3.20;;;1.50;;
41139;SDS011;26881;48.784;9.192;2022-12-29T09:28:11;4.65;;;1.70;;
41139;SDS011;26881;48.784;9.192;2022-12-29T09:33:33;2.10;;;1.40;;
41139;SDS011;26881;48.784;9.192;2022-12-29T09:38:55;2.42;;;1.20;;
41139;SDS011;26881;48.784;9.192;2022-12-29T09:44:23;4.80;;;2.10;;
41139;SDS011;26881;48.784;9.192;2022-12-29T09:50:14;3.05;;;1.50;;
41139;SDS011;26881;48.784;9.192;2022-12-29T09:55:48;3.38;;;1.60;;
41139;SDS011;26881;48.784;9.192;2022-12-29T10:01:16;3.35;;;1.38;;
41139;SDS011;26881;48.784;9.192;2022-12-29T10:24:11;5.97;;;1.52;;
41139;SDS011;26881;48.784;9.192;2022-12-29T10:29:35;1.83;;;1.45;;
41139;SDS011;26881;48.784;9.192;2022-12-29T10:35:09;3.25;;;1.60;;
41139;SDS011;26881;48.784;9.192;2022-12-29T10:46:20;5.82;;;1.52;;
41139;SDS011;26881;48.784;9.192;2022-12-29T10:51:44;3.17;;;1.63;;
41139;SDS011;26881;48.784;9.192;2022-12-29T10:57:13;5.85;;;1.60;;
41139;SDS011;26881;48.784;9.192;2022-12-29T11:08:30;3.13;;;1.52;;
41139;SDS011;26881;48.784;9.192;2022-12-29T11:14:13;6.10;;;1.35;;
41139;SDS011;26881;48.784;9.192;2022-12-29T11:19:39;2.67;;;1.27;;
41139;SDS011;26881;48.784;9.192;2022-12-29T11:25:06;3.83;;;1.58;;
41139;SDS011;26881;48.784;9.192;2022-12-29T11:30:33;2.22;;;1.60;;
41139;SDS011;26881;48.784;9.192;2022-12-29T11:35:59;3.58;;;1.75;;
41139;SDS011;26881;48.784;9.192;2022-12-29T11:41:26;3.35;;;1.73;;
41139;SDS011;26881;48.784;9.192;2022-12-29T11:46:52;3.85;;;1.45;;
41139;SDS011;26881;48.784;9.192;2022-12-29T11:52:15;4.03;;;1.83;;
41139;SDS011;26881;48.784;9.192;2022-12-29T11:57:37;3.35;;;1.75;;
41139;SDS011;26881;48.784;9.192;2022-12-29T12:03:04;2.05;;;1.58;;
41139;SDS011;26881;48.784;9.192;2022-12-29T12:08:39;4.53;;;1.50;;
41139;SDS011;26881;48.784;9.192;2022-12-29T12:25:31;1.45;;;1.27;;
41139;SDS011;26881;48.784;9.192;2022-12-29T12:30:59;1.58;;;1.33;;
41139;SDS011;26881;48.784;9.192;2022-12-29T12:36:29;1.85;;;1.30;;
41139;SDS011;26881;48.784;9.192;2022-12-29T13:05:07;2.42;;;1.60;;
41139;SDS011;26881;48.784;9.192;2022-12-29T13:10:52;4.38;;;1.63;;
41139;SDS011;26881;48.784;9.192;2022-12-29T13:33:11;1.88;;;1.42;;
41139;SDS011;26881;48.784;9.192;2022-12-29T13:39:02;2.88;;;1.40;;
41139;SDS011;26881;48.784;9.192;2022-12-29T13:50:20;2.67;;;1.70;;
41139;SDS011;26881;48.784;9.192;2022-12-29T14:07:13;2.53;;;1.50;;
41139;SDS011;26881;48.784;9.192;2022-12-29T14:12:42;3.05;;;1.67;;
41139;SDS011;26881;48.784;9.192;2022-12-29T14:23:42;3.60;;;1.70;;
41139;SDS011;26881;48.784;9.192;2022-12-29T14:29:15;3.20;;;1.52;;
41139;SDS011;26881;48.784;9.192;2022-12-29T14:34:58;1.67;;;1.50;;
41139;SDS011;26881;48.784;9.192;2022-12-29T14:45:51;6.40;;;2.38;;
41139;SDS011;26881;48.784;9.192;2022-12-29T14:51:20;3.90;;;2.00;;
41139;SDS011;26881;48.784;9.192;2022-12-29T14:56:51;4.20;;;1.92;;
41139;SDS011;26881;48.784;9.192;2022-12-29T15:02:19;4.55;;;2.17;;
41139;SDS011;26881;48.784;9.192;2022-12-29T15:07:43;2.28;;;1.98;;
41139;SDS011;26881;48.784;9.192;2022-12-29T15:13:10;2.70;;;1.70;;
41139;SDS011;26881;48.784;9.192;2022-12-29T15:18:36;3.50;;;1.80;;
41139;SDS011;26881;48.784;9.192;2022-12-29T15:24:03;3.53;;;1.52;;
41139;SDS011;26881;48.784;9.192;2022-12-29T15:29:38;2.28;;;1.50;;
41139;SDS011;26881;48.784;9.192;2022-12-29T15:35:14;3.13;;;1.90;;
41139;SDS011;26881;48.784;9.192;2022-12-29T15:40:45;3.25;;;1.88;;
41139;SDS011;26881;48.784;9.192;2022-12-29T15:46:07;4.78;;;2.15;;
41139;SDS011;26881;48.784;9.192;2022-12-29T15:51:36;3.60;;;2.03;;
41139;SDS011;26881;48.784;9.192;2022-12-29T15:57:01;2.78;;;1.60;;
41139;SDS011;26881;48.784;9.192;2022-12-29T16:02:23;3.10;;;1.50;;
41139;SDS011;26881;48.784;9.192;2022-12-29T16:07:56;0.98;;;0.90;;
41139;SDS011;26881;48.784;9.192;2022-12-29T16:13:28;1.90;;;1.00;;
41139;SDS011;26881;48.784;9.192;2022-12-29T16:19:02;1.55;;;0.93;;
41139;SDS011;26881;48.784;9.192;2022-12-29T16:24:29;0.98;;;0.90;;
41139;SDS011;26881;48.784;9.192;2022-12-29T16:29:54;1.02;;;1.02;;
41139;SDS011;26881;48.784;9.192;2022-12-29T16:40:54;0.95;;;0.95;;
41139;SDS011;26881;48.784;9.192;2022-12-29T16:46:25;1.40;;;0.93;;
41139;SDS011;26881;48.784;9.192;2022-12-29T16:51:50;3.13;;;1.88;;
41139;SDS011;26881;48.784;9.192;2022-12-29T16:57:19;2.38;;;1.45;;
41139;SDS011;26881;48.784;9.192;2022-12-29T17:02:43;1.70;;;1.35;;
41139;SDS011;26881;48.784;9.192;2022-12-29T17:08:40;1.75;;;1.33;;
41139;SDS011;26881;48.784;9.192;2022-12-29T17:14:01;6.07;;;1.48;;
41139;SDS011;26881;48.784;9.192;2022-12-29T17:19:26;3.42;;;1.65;;
41139;SDS011;26881;48.784;9.192;2022-12-29T17:24:54;3.97;;;2.03;;
41139;SDS011;26881;48.784;9.192;2022-12-29T17:30:19;4.28;;;2.35;;
41139;SDS011;26881;48.784;9.192;2022-12-29T17:35:47;5.13;;;2.20;;
41139;SDS011;26881;48.784;9.192;2022-12-29T17:41:15;5.63;;;3.58;;
41139;SDS011;26881;48.784;9.192;2022-12-29T17:46:37;5.97;;;2.70;;
41139;SDS011;26881;48.784;9.192;2022-12-29T17:51:59;3.40;;;2.58;;
41139;SDS011;26881;48.784;9.192;2022-12-29T17:57:21;3.88;;;2.70;;
41139;SDS011;26881;48.784;9.192;2022-12-29T18:02:43;6.28;;;4.00;;
41139;SDS011;26881;48.784;9.192;2022-12-29T18:08:05;2.63;;;2.10;;
41139;SDS011;26881;48.784;9.192;2022-12-29T18:13:30;5.15;;;4.25;;
41139;SDS011;26881;48.784;9.192;2022-12-29T18:19:06;2.10;;;1.42;;
41139;SDS011;26881;48.784;9.192;2022-12-29T18:24:29;3.47;;;1.40;;
41139;SDS011;26881;48.784;9.192;2022-12-29T18:29:51;4.03;;;1.77;;
41139;SDS011;26881;48.784;9.192;2022-12-29T18:35:18;1.77;;;1.40;;
41139;SDS011;26881;48.784;9.192;2022-12-29T18:40:46;2.38;;;1.40;;
41139;SDS011;26881;48.784;9.192;2022-12-29T18:46:10;3.25;;;1.40;;
41139;SDS011;26881;48.784;9.192;2022-12-29T18:51:34;3.95;;;2.15;;
41139;SDS011;26881;48.784;9.192;2022-12-29T18:56:56;2.78;;;1.38;;
41139;SDS011;26881;48.784;9.192;2022-12-29T19:02:18;4.07;;;1.60;;
41139;SDS011;26881;48.784;9.192;2022-12-29T19:07:40;2.75;;;1.27;;
41139;SDS011;26881;48.784;9.192;2022-12-29T19:13:02;5.68;;;1.83;;
41139;SDS011;26881;48.784;9.192;2022-12-29T19:18:25;4.72;;;2.10;;
41139;SDS011;26881;48.784;9.192;2022-12-29T19:24:08;5.37;;;1.50;;
41139;SDS011;26881;48.784;9.192;2022-12-29T19:29:29;2.78;;;1.35;;
41139;SDS011;26881;48.784;9.192;2022-12-29T19:34:51;3.22;;;1.75;;
41139;SDS011;26881;48.784;9.192;2022-12-29T19:40:14;3.80;;;1.48;;
41139;SDS011;26881;48.784;9.192;2022-12-29T19:45:39;3.13;;;1.25;;
41139;SDS011;26881;48.784;9.192;2022-12-29T19:51:02;2.15;;;1.50;;
41139;SDS011;26881;48.784;9.192;2022-12-29T19:56:29;2.25;;;1.40;;
41139;SDS011;26881;48.784;9.192;2022-12-29T20:01:51;5.57;;;1.30;;
41139;SDS011;26881;48.784;9.192;2022-12-29T20:07:13;4.90;;;2.03;;
41139;SDS011;26881;48.784;9.192;2022-12-29T20:12:38;5.28;;;2.63;;
41139;SDS011;26881;48.784;9.192;2022-12-29T20:18:00;4.07;;;2.20;;
41139;SDS011;26881;48.784;9.192;2022-12-29T20:23:36;3.78;;;2.03;;
41139;SDS011;26881;48.784;9.192;2022-12-29T20:28:59;4.10;;;2.00;;
41139;SDS011;26881;48.784;9.192;2022-12-29T20:34:21;1.92;;;1.35;;
41139;SDS011;26881;48.784;9.192;2022-12-29T20:39:43;2.47;;;1.35;;
41139;SDS011;26881;48.784;9.192;2022-12-29T20:45:05;3.15;;;1.90;;
41139;SDS011;26881;48.784;9.192;2022-12-29T20:50:27;7.30;;;2.00;;
41139;SDS011;26881;48.784;9.192;2022-12-29T20:55:49;6.10;;;1.30;;
41139;SDS011;26881;48.784;9.192;2022-12-29T21:01:12;3.85;;;0.80;;
41139;SDS011;26881;48.784;9.192;2022-12-29T21:06:36;1.70;;;1.00;;
41139;SDS011;26881;48.784;9.192;2022-12-29T21:11:58;0.88;;;0.80;;
41139;SDS011;26881;48.784;9.192;2022-12-29T21:17:20;3.20;;;1.60;;
41139;SDS011;26881;48.784;9.192;2022-12-29T21:22:42;3.80;;;1.50;;
41139;SDS011;26881;48.784;9.192;2022-12-29T21:28:07;4.20;;;1.40;;
41139;SDS011;26881;48.784;9.192;2022-12-29T21:33:32;3.13;;;1.45;;
41139;SDS011;26881;48.784;9.192;2022-12-29T21:38:54;3.75;;;1.35;;
41139;SDS011;26881;48.784;9.192;2022-12-29T21:44:16;1.50;;;1.13;;
41139;SDS011;26881;48.784;9.192;2022-12-29T21:49:57;2.25;;;1.50;;
41139;SDS011;26881;48.784;9.192;2022-12-29T21:55:19;3.13;;;1.55;;
41139;SDS011;26881;48.784;9.192;2022-12-29T22:00:40;2.15;;;0.80;;
41139;SDS011;26881;48.784;9.192;2022-12-29T22:06:21;2.30;;;0.70;;
41139;SDS011;26881;48.784;9.192;2022-12-29T22:12:01;1.65;;;0.90;;
41139;SDS011;26881;48.784;9.192;2022-12-29T22:17:44;1.42;;;0.65;;
41139;SDS011;26881;48.784;9.192;2022-12-29T22:23:09;1.48;;;0.88;;
41139;SDS011;26881;48.784;9.192;2022-12-29T22:28:33;0.80;;;0.65;;
41139;SDS011;26881;48.784;9.192;2022-12-29T22:33:59;0.60;;;0.60;;
41139;SDS011;26881;48.784;9.192;2022-12-29T22:39:22;0.70;;;0.70;;
41139;SDS011;26881;48.784;9.192;2022-12-29T22:44:44;1.40;;;0.80;;
41139;SDS011;26881;48.784;9.192;2022-12-29T22:50:05;1.38;;;0.77;;
41139;SDS011;26881;48.784;9.192;2022-12-29T22:55:28;0.95;;;0.57;;
41139;SDS011;26881;48.784;9.192;2022-12-29T23:00:49;0.50;;;0.50;;
41139;SDS011;26881;48.784;9.192;2022-12-29T23:06:12;2.33;;;0.52;;
41139;SDS011;26881;48.784;9.192;2022-12-29T23:11:35;0.98;;;0.60;;
41139;SDS011;26881;48.784;9.192;2022-12-29T23:16:56;1.50;;;0.80;;
41139;SDS011;26881;48.784;9.192;2022-12-29T23:22:18;1.27;;;0.70;;
41139;SDS011;26881;48.784;9.192;2022-12-29T23:27:41;1.27;;;0.98;;
41139;SDS011;26881;48.784;9.192;2022-12-29T23:33:02;3.38;;;1.23;;
41139;SDS011;26881;48.784;9.192;2022-12-29T23:38:24;3.17;;;0.85;;
41139;SDS011;26881;48.784;9.192;2022-12-29T23:43:47;0.90;;;0.80;;
41139;SDS011;26881;48.784;9.192;2022-12-29T23:49:09;3.10;;;0.82;;
41139;SDS011;26881;48.784;9.192;2022-12-29T23:54:31;0.90;;;0.70;;
41139;SDS011;26881;48.784;9.192;2022-12-29T23:59:53;1.40;;;0.75;;
